createdAt,value
2018-06-17T00:00:14.137Z,17.90
2018-06-17T00:02:41.551Z,17.70
2018-06-17T00:05:08.912Z,17.70
2018-06-17T00:07:36.287Z,17.70
2018-06-17T00:10:04.310Z,17.80
2018-06-17T00:12:31.656Z,17.70
2018-06-17T00:14:59.110Z,17.70
2018-06-17T00:17:26.484Z,17.50
2018-06-17T00:19:53.904Z,17.50
2018-06-17T00:22:21.328Z,17.40
2018-06-17T00:24:48.742Z,17.40
2018-06-17T00:27:16.102Z,17.40
2018-06-17T00:29:43.441Z,17.30
2018-06-17T00:32:10.806Z,17.30
2018-06-17T00:34:38.249Z,17.20
2018-06-17T00:37:05.701Z,17.10
2018-06-17T00:39:33.210Z,17.10
2018-06-17T00:42:00.620Z,17.10
2018-06-17T00:44:28.018Z,17.00
2018-06-17T00:46:55.369Z,16.80
2018-06-17T00:49:22.743Z,16.80
2018-06-17T00:51:50.142Z,16.80
2018-06-17T00:54:17.521Z,16.90
2018-06-17T00:56:55.502Z,16.80
2018-06-17T00:59:22.852Z,16.80
2018-06-17T01:01:50.227Z,16.70
2018-06-17T01:04:17.517Z,16.70
2018-06-17T01:06:44.910Z,16.70
2018-06-17T01:09:12.254Z,16.70
2018-06-17T01:11:39.649Z,16.70
2018-06-17T01:14:07.065Z,16.70
2018-06-17T01:16:34.453Z,16.70
2018-06-17T01:19:01.931Z,16.70
2018-06-17T01:21:29.361Z,16.60
2018-06-17T01:23:56.699Z,16.50
2018-06-17T01:26:24.097Z,16.40
2018-06-17T01:28:51.433Z,16.40
2018-06-17T01:31:18.879Z,16.40
2018-06-17T01:33:46.279Z,16.40
2018-06-17T01:36:13.749Z,16.40
2018-06-17T01:38:41.195Z,16.30
2018-06-17T01:41:08.555Z,16.40
2018-06-17T01:43:35.959Z,16.40
2018-06-17T01:46:03.358Z,16.30
2018-06-17T01:48:30.736Z,16.30
2018-06-17T01:50:58.161Z,16.30
2018-06-17T01:53:25.566Z,16.20
2018-06-17T01:55:52.991Z,16.20
2018-06-17T01:58:20.371Z,16.10
2018-06-17T02:00:47.703Z,16.10
2018-06-17T02:03:20.779Z,16.10
2018-06-17T02:05:53.901Z,16.00
2018-06-17T02:08:26.805Z,15.90
2018-06-17T02:10:59.966Z,15.90
2018-06-17T02:13:27.412Z,15.90
2018-06-17T02:15:54.862Z,15.90
2018-06-17T02:18:22.164Z,15.80
2018-06-17T02:20:49.656Z,15.70
2018-06-17T02:23:17.001Z,15.90
2018-06-17T02:25:44.337Z,15.90
2018-06-17T02:28:11.759Z,16.00
2018-06-17T02:30:39.098Z,16.00
2018-06-17T02:33:06.553Z,16.00
2018-06-17T02:35:33.952Z,16.00
2018-06-17T02:38:01.387Z,16.10
2018-06-17T02:40:28.708Z,16.00
2018-06-17T02:42:55.971Z,15.80
2018-06-17T02:45:28.949Z,15.70
2018-06-17T02:48:02.067Z,15.70
2018-06-17T02:50:35.262Z,15.70
2018-06-17T02:54:08.169Z,15.60
2018-06-17T02:56:35.545Z,15.60
2018-06-17T02:59:02.895Z,15.70
2018-06-17T03:01:30.389Z,15.70
2018-06-17T03:03:57.939Z,15.50
2018-06-17T03:06:25.417Z,15.40
2018-06-17T03:08:52.818Z,15.50
2018-06-17T03:11:20.157Z,15.50
2018-06-17T03:13:47.593Z,15.40
2018-06-17T03:16:14.910Z,15.50
2018-06-17T03:18:42.326Z,15.50
2018-06-17T03:21:09.706Z,15.40
2018-06-17T03:23:37.217Z,15.40
2018-06-17T03:26:10.229Z,15.50
2018-06-17T03:28:43.090Z,15.50
2018-06-17T03:31:16.632Z,15.50
2018-06-17T03:33:46.802Z,15.40
2018-06-17T03:36:15.064Z,15.50
2018-06-17T03:38:42.615Z,15.50
2018-06-17T03:41:10.887Z,15.50
2018-06-17T03:43:38.884Z,15.50
2018-06-17T03:46:06.392Z,15.50
2018-06-17T03:48:34.136Z,15.40
2018-06-17T03:51:01.822Z,15.40
2018-06-17T03:53:29.167Z,15.40
2018-06-17T03:55:56.700Z,15.50
2018-06-17T03:58:24.008Z,15.50
2018-06-17T04:00:51.482Z,15.50
2018-06-17T04:03:18.809Z,15.40
2018-06-17T04:05:46.268Z,15.50
2018-06-17T04:08:13.666Z,15.60
2018-06-17T04:10:40.990Z,15.60
2018-06-17T04:13:08.414Z,15.70
2018-06-17T04:15:36.346Z,15.70
2018-06-17T04:18:04.186Z,15.70
2018-06-17T04:20:31.533Z,15.70
2018-06-17T04:22:58.878Z,15.70
2018-06-17T04:25:26.430Z,15.70
2018-06-17T04:27:53.654Z,15.70
2018-06-17T04:30:20.940Z,15.80
2018-06-17T04:32:48.313Z,15.70
2018-06-17T04:35:15.761Z,15.80
2018-06-17T04:37:43.153Z,15.90
2018-06-17T04:40:10.486Z,16.00
2018-06-17T04:42:37.866Z,16.00
2018-06-17T04:45:05.272Z,16.10
2018-06-17T04:47:32.730Z,16.00
2018-06-17T04:50:00.102Z,15.90
2018-06-17T04:52:27.568Z,15.90
2018-06-17T04:54:54.883Z,16.00
2018-06-17T04:57:22.330Z,16.00
2018-06-17T04:59:49.778Z,15.90
2018-06-17T05:02:17.185Z,15.90
2018-06-17T05:04:44.553Z,16.10
2018-06-17T05:07:11.962Z,16.20
2018-06-17T05:09:39.353Z,16.10
2018-06-17T05:12:06.902Z,16.20
2018-06-17T05:14:34.200Z,16.30
2018-06-17T05:17:01.608Z,16.50
2018-06-17T05:19:29.074Z,16.60
2018-06-17T05:21:56.462Z,16.70
2018-06-17T05:24:23.906Z,16.90
2018-06-17T05:26:51.361Z,17.10
2018-06-17T05:29:18.749Z,17.20
2018-06-17T05:31:46.213Z,17.20
2018-06-17T05:34:13.618Z,17.30
2018-06-17T05:36:41.053Z,17.20
2018-06-17T05:39:10.353Z,17.30
2018-06-17T05:41:38.094Z,17.10
2018-06-17T05:44:06.831Z,17.00
2018-06-17T05:46:34.589Z,17.10
2018-06-17T05:49:01.989Z,17.40
2018-06-17T05:51:29.385Z,17.50
2018-06-17T05:53:56.867Z,17.50
2018-06-17T05:56:24.307Z,17.60
2018-06-17T05:58:51.829Z,17.80
2018-06-17T06:01:20.573Z,18.10
2018-06-17T06:03:54.079Z,18.20
2018-06-17T06:06:21.521Z,18.30
2018-06-17T06:08:48.944Z,18.20
2018-06-17T06:11:16.394Z,18.20
2018-06-17T06:16:11.197Z,18.40
2018-06-17T06:18:38.507Z,18.50
2018-06-17T06:21:05.914Z,18.50
2018-06-17T06:23:33.334Z,18.70
2018-06-17T06:26:00.841Z,18.80
2018-06-17T06:28:28.167Z,19.00
2018-06-17T06:30:55.598Z,19.10
2018-06-17T06:33:22.951Z,19.10
2018-06-17T06:35:55.477Z,19.30
2018-06-17T06:38:23.663Z,19.50
2018-06-17T06:40:51.076Z,19.60
2018-06-17T06:43:18.506Z,19.50
2018-06-17T06:45:45.816Z,19.30
2018-06-17T06:48:13.174Z,19.20
2018-06-17T06:50:40.577Z,19.30
2018-06-17T06:53:07.966Z,19.40
2018-06-17T06:55:35.410Z,19.50
2018-06-17T06:58:02.930Z,19.70
2018-06-17T07:00:30.484Z,19.90
2018-06-17T07:03:09.387Z,20.00
2018-06-17T07:05:48.501Z,20.30
2018-06-17T07:08:27.458Z,20.20
2018-06-17T07:10:54.992Z,20.20
2018-06-17T07:13:22.361Z,20.00
2018-06-17T07:16:01.230Z,20.00
2018-06-17T07:18:34.549Z,20.00
2018-06-17T07:21:02.061Z,20.00
2018-06-17T07:23:29.582Z,20.00
2018-06-17T07:26:39.008Z,19.90
2018-06-17T07:31:39.597Z,19.90
2018-06-17T07:34:07.814Z,19.90
2018-06-17T07:36:35.777Z,19.90
2018-06-17T07:40:45.439Z,19.90
2018-06-17T07:43:12.837Z,19.90
2018-06-17T07:45:40.182Z,20.10
2018-06-17T07:48:07.618Z,20.10
2018-06-17T07:50:46.479Z,20.70
2018-06-17T07:53:16.330Z,20.80
2018-06-17T07:55:43.735Z,20.90
2018-06-17T07:58:11.351Z,21.00
2018-06-17T08:00:38.814Z,20.90
2018-06-17T08:03:06.317Z,20.60
2018-06-17T08:05:33.812Z,20.70
2018-06-17T08:08:01.217Z,20.80
2018-06-17T08:10:28.581Z,21.00
2018-06-17T08:12:55.909Z,21.10
2018-06-17T08:15:23.614Z,21.20
2018-06-17T08:17:51.018Z,21.10
2018-06-17T08:20:18.435Z,21.00
2018-06-17T08:22:45.818Z,20.90
2018-06-17T08:25:13.297Z,20.70
2018-06-17T08:30:08.119Z,20.80
2018-06-17T08:32:35.516Z,20.80
2018-06-17T08:35:04.381Z,20.80
2018-06-17T08:37:31.929Z,20.80
2018-06-17T08:42:26.677Z,20.80
2018-06-17T08:44:54.248Z,20.80
2018-06-17T08:47:22.621Z,20.80
2018-06-17T08:49:50.267Z,20.60
2018-06-17T08:52:17.809Z,20.60
2018-06-17T08:54:45.989Z,20.50
2018-06-17T08:57:13.407Z,20.60
2018-06-17T08:59:40.791Z,20.70
2018-06-17T09:02:09.487Z,20.70
2018-06-17T09:04:36.895Z,20.80
2018-06-17T09:07:04.332Z,20.90
2018-06-17T09:09:31.701Z,21.00
2018-06-17T09:11:59.085Z,21.10
2018-06-17T09:14:29.489Z,21.30
2018-06-17T09:16:56.907Z,21.30
2018-06-17T09:19:27.969Z,21.20
2018-06-17T09:21:55.491Z,20.90
2018-06-17T09:24:22.966Z,20.90
2018-06-17T09:26:50.319Z,20.90
2018-06-17T09:29:17.681Z,20.90
2018-06-17T09:31:45.228Z,21.00
2018-06-17T09:34:12.750Z,21.10
2018-06-17T09:36:40.157Z,21.20
2018-06-17T09:39:08.423Z,21.20
2018-06-17T09:41:35.881Z,21.00
2018-06-17T09:44:03.355Z,21.10
2018-06-17T09:46:30.762Z,21.20
2018-06-17T09:48:58.186Z,21.20
2018-06-17T09:51:26.413Z,21.20
2018-06-17T09:53:53.951Z,21.20
2018-06-17T09:56:21.404Z,21.20
2018-06-17T09:58:48.791Z,21.00
2018-06-17T10:01:16.199Z,20.80
2018-06-17T10:03:43.623Z,20.60
2018-06-17T10:06:11.058Z,20.70
2018-06-17T10:08:38.503Z,20.70
2018-06-17T10:11:06.910Z,20.60
2018-06-17T10:13:39.436Z,20.40
2018-06-17T10:16:07.396Z,20.30
2018-06-17T10:18:34.808Z,20.30
2018-06-17T10:21:02.430Z,20.30
2018-06-17T10:23:29.881Z,20.30
2018-06-17T10:25:57.393Z,20.20
2018-06-17T10:28:25.931Z,20.20
2018-06-17T10:30:54.017Z,20.10
2018-06-17T10:33:21.790Z,20.10
2018-06-17T10:35:49.351Z,19.90
2018-06-17T10:38:16.980Z,19.90
2018-06-17T10:40:44.782Z,19.90
2018-06-17T10:43:23.500Z,19.90
2018-06-17T10:45:50.948Z,19.90
2018-06-17T10:48:18.362Z,19.80
2018-06-17T10:50:45.830Z,20.00
2018-06-17T10:53:13.443Z,20.00
2018-06-17T10:55:40.912Z,20.10
2018-06-17T10:58:08.369Z,20.10
2018-06-17T11:00:35.782Z,20.20
2018-06-17T11:03:03.392Z,20.20
2018-06-17T11:05:30.912Z,20.20
2018-06-17T11:07:58.378Z,20.00
2018-06-17T11:10:25.730Z,20.30
2018-06-17T11:12:53.120Z,20.30
2018-06-17T11:15:20.584Z,20.20
2018-06-17T11:17:48.003Z,20.40
2018-06-17T11:20:15.384Z,20.50
2018-06-17T11:22:42.689Z,20.50
2018-06-17T11:25:10.052Z,20.30
2018-06-17T11:27:37.524Z,20.50
2018-06-17T11:30:04.963Z,20.70
2018-06-17T11:32:32.333Z,20.70
2018-06-17T11:34:59.736Z,20.70
2018-06-17T11:37:27.269Z,20.70
2018-06-17T11:39:54.709Z,20.40
2018-06-17T11:42:22.197Z,20.40
2018-06-17T11:44:49.618Z,20.50
2018-06-17T11:47:17.088Z,20.60
2018-06-17T11:49:44.522Z,20.80
2018-06-17T11:52:12.076Z,20.80
2018-06-17T11:54:39.750Z,21.00
2018-06-17T11:57:07.185Z,21.00
2018-06-17T11:59:34.947Z,21.00
2018-06-17T12:02:02.440Z,21.10
2018-06-17T12:04:29.834Z,21.20
2018-06-17T12:06:57.275Z,21.10
2018-06-17T12:09:24.751Z,21.30
2018-06-17T12:11:52.195Z,21.30
2018-06-17T12:14:19.659Z,21.40
2018-06-17T12:16:47.129Z,21.50
2018-06-17T12:19:14.713Z,21.70
2018-06-17T12:21:42.191Z,21.60
2018-06-17T12:24:09.682Z,21.50
2018-06-17T12:26:37.141Z,21.60
2018-06-17T12:29:04.608Z,22.00
2018-06-17T12:31:32.023Z,22.00
2018-06-17T12:33:59.473Z,22.50
2018-06-17T12:36:27.139Z,22.90
2018-06-17T12:38:54.621Z,23.10
2018-06-17T12:41:22.105Z,22.80
2018-06-17T12:43:49.522Z,23.00
2018-06-17T12:46:16.903Z,22.80
2018-06-17T12:48:44.330Z,22.60
2018-06-17T12:51:11.738Z,23.20
2018-06-17T12:53:39.104Z,23.70
2018-06-17T12:56:06.432Z,23.60
2018-06-17T12:58:33.901Z,24.00
2018-06-17T13:01:01.423Z,24.10
2018-06-17T13:03:28.823Z,24.00
2018-06-17T13:05:56.239Z,23.80
2018-06-17T13:08:23.658Z,23.70
2018-06-17T13:10:51.082Z,23.90
2018-06-17T13:13:18.515Z,24.00
2018-06-17T13:15:46.359Z,24.30
2018-06-17T13:18:13.926Z,24.10
2018-06-17T13:20:41.349Z,24.20
2018-06-17T13:23:09.003Z,24.00
2018-06-17T13:25:36.386Z,23.90
2018-06-17T13:28:03.883Z,24.00
2018-06-17T13:30:31.370Z,23.70
2018-06-17T13:32:58.742Z,23.30
2018-06-17T13:35:26.210Z,23.40
2018-06-17T13:37:53.608Z,23.60
2018-06-17T13:40:21.682Z,23.80
2018-06-17T13:42:49.450Z,24.00
2018-06-17T13:45:16.887Z,24.10
2018-06-17T13:47:44.299Z,24.00
2018-06-17T13:52:39.132Z,24.50
2018-06-17T13:55:06.610Z,24.90
2018-06-17T13:57:33.986Z,25.00
2018-06-17T14:00:01.587Z,24.70
2018-06-17T14:02:29.092Z,24.60
2018-06-17T14:04:56.490Z,24.70
2018-06-17T14:07:23.972Z,24.50
2018-06-17T14:09:57.978Z,24.50
2018-06-17T14:12:25.485Z,24.30
2018-06-17T14:14:52.888Z,24.00
2018-06-17T14:19:47.553Z,23.90
2018-06-17T14:22:14.985Z,23.90
2018-06-17T14:24:42.405Z,24.30
2018-06-17T14:27:09.853Z,24.40
2018-06-17T14:29:37.385Z,24.70
2018-06-17T14:32:05.090Z,24.50
2018-06-17T14:34:32.491Z,24.70
2018-06-17T14:37:00.192Z,24.50
2018-06-17T14:39:27.558Z,24.80
2018-06-17T14:42:00.677Z,24.80
2018-06-17T14:44:33.563Z,24.40
2018-06-17T14:47:06.709Z,24.20
2018-06-17T14:49:39.797Z,24.20
2018-06-17T14:52:12.942Z,24.40
2018-06-17T14:54:40.375Z,24.50
2018-06-17T14:57:07.833Z,24.50
2018-06-17T14:59:35.280Z,24.50
2018-06-17T15:02:02.746Z,24.50
2018-06-17T15:04:30.209Z,24.30
2018-06-17T15:06:58.308Z,24.30
2018-06-17T15:09:26.918Z,24.30
2018-06-17T15:11:54.293Z,24.20
2018-06-17T15:14:21.731Z,24.10
2018-06-17T15:16:49.129Z,24.00
2018-06-17T15:19:16.667Z,23.90
2018-06-17T15:21:44.086Z,23.80
2018-06-17T15:24:11.415Z,23.70
2018-06-17T15:26:38.856Z,23.50
2018-06-17T15:29:07.240Z,23.40
2018-06-17T15:31:40.227Z,23.30
2018-06-17T15:34:13.780Z,23.20
2018-06-17T15:36:47.064Z,23.20
2018-06-17T15:39:19.978Z,23.10
2018-06-17T15:41:48.151Z,23.10
2018-06-17T15:44:15.601Z,23.00
2018-06-17T15:46:42.993Z,23.00
2018-06-17T15:49:10.477Z,23.10
2018-06-17T15:51:38.156Z,23.10
2018-06-17T15:54:05.576Z,23.00
2018-06-17T15:56:33.078Z,23.10
2018-06-17T15:59:00.534Z,23.30
2018-06-17T16:01:27.981Z,23.30
2018-06-17T16:03:56.665Z,23.20
2018-06-17T16:06:24.870Z,23.20
2018-06-17T16:08:52.335Z,23.00
2018-06-17T16:11:19.742Z,23.00
2018-06-17T16:13:52.755Z,23.00
2018-06-17T16:16:25.990Z,22.80
2018-06-17T16:18:59.177Z,22.60
2018-06-17T16:21:26.891Z,22.50
2018-06-17T16:23:54.357Z,22.50
2018-06-17T16:26:21.803Z,22.50
2018-06-17T16:28:50.042Z,22.60
2018-06-17T16:31:17.533Z,22.80
2018-06-17T16:33:44.830Z,22.90
2018-06-17T16:36:12.172Z,22.90
2018-06-17T16:38:39.734Z,22.90
2018-06-17T16:41:07.270Z,23.10
2018-06-17T16:43:34.730Z,23.00
2018-06-17T16:46:02.760Z,23.10
2018-06-17T16:48:31.166Z,23.00
2018-06-17T16:51:04.180Z,22.90
2018-06-17T16:53:37.240Z,23.00
2018-06-17T16:56:10.448Z,22.80
2018-06-17T16:58:43.530Z,22.90
2018-06-17T17:01:11.102Z,22.90
2018-06-17T17:03:38.566Z,22.90
2018-06-17T17:06:05.971Z,22.80
2018-06-17T17:08:33.482Z,22.70
2018-06-17T17:11:00.878Z,22.50
2018-06-17T17:13:28.221Z,22.50
2018-06-17T17:15:55.622Z,22.40
2018-06-17T17:18:23.072Z,22.40
2018-06-17T17:20:50.774Z,22.30
2018-06-17T17:23:18.358Z,22.10
2018-06-17T17:25:45.804Z,22.10
2018-06-17T17:28:13.243Z,22.10
2018-06-17T17:30:42.146Z,22.10
2018-06-17T17:33:15.222Z,22.00
2018-06-17T17:35:48.371Z,22.00
2018-06-17T17:38:21.535Z,22.00
2018-06-17T17:40:52.257Z,21.90
2018-06-17T17:43:19.646Z,21.80
2018-06-17T17:45:52.653Z,21.80
2018-06-17T17:48:20.103Z,21.80
2018-06-17T17:50:47.616Z,21.80
2018-06-17T17:55:42.449Z,21.90
2018-06-17T17:58:09.840Z,21.90
2018-06-17T18:00:37.205Z,21.90
2018-06-17T18:03:04.632Z,21.80
2018-06-17T18:05:32.099Z,21.70
2018-06-17T18:07:59.513Z,21.80
2018-06-17T18:10:27.675Z,21.70
2018-06-17T18:12:55.060Z,21.70
2018-06-17T18:15:22.469Z,21.60
2018-06-17T18:17:49.960Z,21.60
2018-06-17T18:20:17.397Z,21.70
2018-06-17T18:22:44.837Z,21.60
2018-06-17T18:25:17.917Z,21.50
2018-06-17T18:27:51.070Z,21.50
2018-06-17T18:30:24.353Z,21.40
2018-06-17T18:32:57.589Z,21.50
2018-06-17T18:35:30.821Z,21.50
2018-06-17T18:37:58.321Z,21.40
2018-06-17T18:40:25.733Z,21.40
2018-06-17T18:42:53.094Z,21.40
2018-06-17T18:45:20.591Z,21.40
2018-06-17T18:47:48.941Z,21.30
2018-06-17T18:50:16.398Z,21.30
2018-06-17T18:55:11.911Z,21.20
2018-06-17T18:57:39.416Z,21.10
2018-06-17T19:00:07.348Z,21.10
2018-06-17T19:05:02.288Z,21.00
2018-06-17T19:07:29.877Z,21.00
2018-06-17T19:10:03.004Z,20.90
2018-06-17T19:12:36.246Z,20.80
2018-06-17T19:15:09.510Z,20.80
2018-06-17T19:17:42.675Z,20.70
2018-06-17T19:20:10.161Z,20.60
2018-06-17T19:22:37.777Z,20.60
2018-06-17T19:25:05.233Z,20.40
2018-06-17T19:27:32.709Z,20.40
2018-06-17T19:30:00.103Z,20.30
2018-06-17T19:32:27.744Z,20.30
2018-06-17T19:34:55.176Z,20.30
2018-06-17T19:37:22.657Z,20.20
2018-06-17T19:39:50.089Z,20.20
2018-06-17T19:42:17.595Z,20.10
2018-06-17T19:44:45.076Z,20.10
2018-06-17T19:47:12.536Z,20.10
2018-06-17T19:49:45.783Z,20.00
2018-06-17T19:52:18.820Z,20.00
2018-06-17T19:54:51.934Z,19.90
2018-06-17T19:57:25.144Z,19.90
2018-06-17T20:00:30.785Z,19.80
2018-06-17T20:02:58.289Z,19.90
2018-06-17T20:05:25.714Z,19.80
2018-06-17T20:10:20.629Z,19.80
2018-06-17T20:12:48.086Z,19.80
2018-06-17T20:17:43.130Z,19.70
2018-06-17T20:20:10.629Z,19.70
2018-06-17T20:22:38.158Z,19.70
2018-06-17T20:25:05.529Z,19.60
2018-06-17T20:27:32.966Z,19.40
2018-06-17T20:30:00.395Z,19.30
2018-06-17T20:32:33.492Z,19.30
2018-06-17T20:35:06.597Z,19.20
2018-06-17T20:37:39.499Z,19.20
2018-06-17T20:40:12.622Z,19.30
2018-06-17T20:42:45.824Z,19.20
2018-06-17T20:45:13.691Z,19.20
2018-06-17T20:47:41.180Z,19.10
2018-06-17T20:50:08.679Z,19.10
2018-06-17T20:52:36.089Z,19.00
2018-06-17T20:55:03.571Z,19.20
2018-06-17T20:57:30.967Z,19.10
2018-06-17T20:59:58.367Z,19.00
2018-06-17T21:02:25.805Z,18.90
2018-06-17T21:04:53.294Z,18.80
2018-06-17T21:07:20.674Z,18.80
2018-06-17T21:09:48.122Z,18.80
2018-06-17T21:12:15.464Z,18.80
2018-06-17T21:14:42.931Z,18.70
2018-06-17T21:17:10.293Z,18.70
2018-06-17T21:19:43.452Z,18.60
2018-06-17T21:22:16.772Z,18.50
2018-06-17T21:24:50.022Z,18.50
2018-06-17T21:27:23.341Z,18.50
2018-06-17T21:29:50.787Z,18.40
2018-06-17T21:32:18.284Z,18.40
2018-06-17T21:34:45.777Z,18.30
2018-06-17T21:37:13.087Z,18.20
2018-06-17T21:39:40.504Z,18.20
2018-06-17T21:42:07.947Z,18.20
2018-06-17T21:44:35.378Z,18.20
2018-06-17T21:47:02.727Z,18.20
2018-06-17T21:49:30.051Z,18.20
2018-06-17T21:51:57.496Z,18.20
2018-06-17T21:54:24.816Z,18.10
2018-06-17T21:56:52.208Z,18.10
2018-06-17T21:59:19.572Z,18.10
2018-06-17T22:01:46.926Z,18.10
2018-06-17T22:04:20.198Z,18.00
2018-06-17T22:06:47.816Z,17.90
2018-06-17T22:09:20.792Z,17.90
2018-06-17T22:11:53.812Z,17.90
2018-06-17T22:15:25.750Z,18.00
2018-06-17T22:17:54.303Z,17.90
2018-06-17T22:20:21.796Z,17.70
2018-06-17T22:22:49.252Z,17.60
2018-06-17T22:25:17.025Z,17.60
2018-06-17T22:27:44.352Z,17.50
2018-06-17T22:30:11.722Z,17.50
2018-06-17T22:32:39.093Z,17.50
2018-06-17T22:35:06.532Z,17.40
2018-06-17T22:37:33.934Z,17.40
2018-06-17T22:40:01.206Z,17.40
2018-06-17T22:42:28.666Z,17.30
2018-06-17T22:44:55.969Z,17.30
2018-06-17T22:47:28.934Z,17.30
2018-06-17T22:49:56.426Z,17.30
2018-06-17T22:52:23.930Z,17.20
2018-06-17T22:54:53.493Z,17.10
2018-06-17T22:57:26.846Z,17.10
2018-06-17T22:59:59.825Z,17.00
2018-06-17T23:02:33.135Z,17.00
2018-06-17T23:06:04.209Z,17.00
2018-06-17T23:09:37.203Z,17.00
2018-06-17T23:12:04.741Z,16.90
2018-06-17T23:14:32.569Z,16.90
2018-06-17T23:17:00.198Z,17.00
2018-06-17T23:19:27.567Z,17.10
2018-06-17T23:21:54.871Z,17.00
2018-06-17T23:24:22.425Z,17.10
2018-06-17T23:26:49.963Z,17.10
2018-06-17T23:29:17.297Z,17.10
2018-06-17T23:31:44.702Z,17.00
2018-06-17T23:34:12.095Z,16.90
2018-06-17T23:36:39.420Z,16.90
2018-06-17T23:39:08.700Z,16.90
2018-06-17T23:41:36.017Z,16.90
2018-06-17T23:44:03.451Z,16.80
2018-06-17T23:46:36.537Z,16.80
2018-06-17T23:49:09.769Z,16.90
2018-06-17T23:51:43.049Z,16.80
2018-06-17T23:54:16.381Z,16.70
2018-06-17T23:56:44.050Z,16.70
2018-06-17T23:59:11.453Z,16.70
